Time;durP1;ratioP1;P1;durP2;ratioP2;P2;SDS_P1;SDS_P2;PMS_P1;PMS_P2;Temp;Humidity;BMP_temperature;BMP_pressure;BME280_temperature;BME280_humidity;BME280_pressure;Samples;Min_cycle;Max_cycle;Signal;HPM_P1;HPM_P2
2023/08/14 00:01:17;;;;;;;5.40;4.20;;;;;;;16.70;73.84;101059.16;107600;1257;74033;-69
2023/08/14 00:03:45;;;;;;;5.10;4.00;;;;;;;16.68;73.88;101060.36;107510;1257;71586;-69
2023/08/14 00:06:13;;;;;;;7.00;4.40;;;;;;;16.68;74.03;101062.16;107717;1256;73189;-69
2023/08/14 00:08:40;;;;;;;5.20;3.60;;;;;;;16.69;74.09;101068.02;107519;1257;61656;-69
2023/08/14 00:11:08;;;;;;;5.50;3.40;;;;;;;16.70;74.21;101069.58;107685;1257;61247;-69
2023/08/14 00:13:53;;;;;;;4.70;3.20;;;;;;;16.70;74.23;101068.81;107642;1257;73927;-68
2023/08/14 00:16:23;;;;;;;5.10;3.60;;;;;;;16.70;74.23;101072.72;107687;1261;71789;-68
2023/08/14 00:18:50;;;;;;;5.20;3.60;;;;;;;16.69;74.25;101072.34;107583;1257;71472;-69
2023/08/14 00:21:18;;;;;;;5.70;3.80;;;;;;;16.67;74.19;101071.00;107590;1257;61788;-68
2023/08/14 00:23:50;;;;;;;4.90;3.70;;;;;;;16.67;74.24;101072.75;107635;1257;59961;-68
2023/08/14 00:26:18;;;;;;;4.50;3.50;;;;;;;16.65;74.30;101071.46;107585;1257;74594;-68
2023/08/14 00:28:46;;;;;;;4.90;3.60;;;;;;;16.62;74.29;101073.15;107559;1257;72976;-68
2023/08/14 00:31:14;;;;;;;4.90;3.70;;;;;;;16.58;74.38;101072.35;107634;1257;71585;-69
2023/08/14 00:33:41;;;;;;;6.40;4.00;;;;;;;16.53;74.42;101074.65;107585;1260;62658;-68
2023/08/14 00:36:09;;;;;;;5.70;4.10;;;;;;;16.50;74.56;101077.81;107476;1256;60061;-68
2023/08/14 00:38:37;;;;;;;5.30;4.10;;;;;;;16.49;74.67;101074.42;107548;1257;74590;-68
2023/08/14 00:41:05;;;;;;;6.00;3.80;;;;;;;16.46;74.66;101078.33;107503;1257;71273;-68
2023/08/14 00:43:32;;;;;;;8.60;4.20;;;;;;;16.44;74.85;101080.27;107424;1257;71865;-69
2023/08/14 00:46:00;;;;;;;5.30;4.10;;;;;;;16.45;74.91;101081.95;107509;1257;61212;-67
2023/08/14 00:48:27;;;;;;;6.20;4.20;;;;;;;16.47;74.94;101080.36;107489;1257;61106;-69
2023/08/14 00:50:55;;;;;;;5.80;4.00;;;;;;;16.46;74.96;101076.23;107520;1256;74821;-69
2023/08/14 00:53:24;;;;;;;5.00;4.10;;;;;;;16.44;75.07;101073.11;107608;1256;71686;-69
2023/08/14 00:55:52;;;;;;;5.40;4.10;;;;;;;16.43;75.20;101069.95;107579;1257;72749;-69
2023/08/14 00:58:21;;;;;;;6.10;4.50;;;;;;;16.37;75.36;101070.80;107462;1259;61639;-69
2023/08/14 01:00:49;;;;;;;4.90;3.90;;;;;;;16.33;75.51;101068.52;107598;1257;61071;-69
2023/08/14 01:03:18;;;;;;;5.70;4.50;;;;;;;16.30;75.61;101065.85;107564;1257;74677;-68
2023/08/14 01:05:45;;;;;;;5.70;3.90;;;;;;;16.23;75.71;101070.01;107468;1257;70661;-69
2023/08/14 01:08:13;;;;;;;4.90;3.90;;;;;;;16.13;75.85;101069.00;107559;1257;71460;-69
2023/08/14 01:10:59;;;;;;;6.00;4.20;;;;;;;16.08;76.05;101074.33;107620;1257;61656;-68
2023/08/14 01:13:51;;;;;;;7.70;4.30;;;;;;;16.07;76.30;101076.61;107456;1256;61111;-68
2023/08/14 01:16:24;;;;;;;5.20;4.10;;;;;;;16.07;76.47;101072.88;107504;1263;73444;-68
2023/08/14 01:18:53;;;;;;;5.70;4.10;;;;;;;16.08;76.48;101074.27;107507;1257;72952;-67
2023/08/14 01:21:36;;;;;;;5.80;4.20;;;;;;;16.06;76.54;101072.14;107448;1256;72856;-67
2023/08/14 01:24:32;;;;;;;7.90;4.50;;;;;;;16.04;76.70;101074.67;107548;1257;61312;-68
2023/08/14 01:26:59;;;;;;;5.90;4.40;;;;;;;16.05;76.80;101075.59;107532;1256;61112;-68
2023/08/14 01:29:30;;;;;;;6.60;4.50;;;;;;;16.10;76.85;101076.58;107509;1257;74705;-68
2023/08/14 01:31:58;;;;;;;6.70;5.00;;;;;;;16.15;76.88;101078.42;107528;1257;72001;-68
2023/08/14 01:34:25;;;;;;;5.60;4.10;;;;;;;16.20;76.89;101077.84;107529;1257;71483;-68
2023/08/14 01:37:30;;;;;;;6.80;4.70;;;;;;;16.26;76.79;101079.75;107581;1256;61062;-68
2023/08/14 01:40:30;;;;;;;5.50;4.40;;;;;;;16.29;76.66;101078.97;107619;1257;61145;-69
2023/08/14 01:43:00;;;;;;;7.00;4.60;;;;;;;16.32;76.64;101079.96;107431;1256;74689;-68
2023/08/14 01:45:28;;;;;;;5.00;4.30;;;;;;;16.31;76.61;101080.55;107765;1257;75090;-69
2023/08/14 01:47:56;;;;;;;7.50;4.50;;;;;;;16.31;76.66;101084.98;107425;1258;72771;-68
2023/08/14 01:50:24;;;;;;;8.30;4.60;;;;;;;16.33;76.59;101088.95;107466;1258;61757;-68
2023/08/14 01:52:52;;;;;;;6.70;4.90;;;;;;;16.34;76.65;101088.46;107591;1257;61141;-67
2023/08/14 01:55:20;;;;;;;4.90;4.40;;;;;;;16.35;76.60;101090.44;107362;1256;74781;-68
2023/08/14 01:57:48;;;;;;;6.50;4.70;;;;;;;16.38;76.66;101090.48;107573;1256;73863;-67
2023/08/14 02:00:16;;;;;;;7.20;4.50;;;;;;;16.39;76.53;101088.90;107515;1258;72501;-67
2023/08/14 02:02:44;;;;;;;6.30;4.80;;;;;;;16.39;76.41;101089.77;107529;1259;61150;-68
2023/08/14 02:05:11;;;;;;;5.80;5.00;;;;;;;16.40;76.37;101092.06;107504;1257;61101;-68
2023/08/14 02:07:39;;;;;;;7.20;4.70;;;;;;;16.43;76.25;101092.44;107414;1264;74701;-68
2023/08/14 02:10:07;;;;;;;6.00;4.30;;;;;;;16.45;76.27;101093.92;107461;1256;72821;-68
2023/08/14 02:12:36;;;;;;;5.90;4.70;;;;;;;16.47;76.08;101092.50;107626;1256;71903;-67
2023/08/14 02:15:08;;;;;;;8.00;4.50;;;;;;;16.49;76.14;101094.75;107555;1257;61076;-68
2023/08/14 02:17:36;;;;;;;5.90;4.20;;;;;;;16.50;75.97;101097.17;107553;1256;61220;-69
2023/08/14 02:20:04;;;;;;;4.70;4.20;;;;;;;16.52;75.96;101097.42;107520;1256;74681;-69
2023/08/14 02:22:32;;;;;;;6.90;4.30;;;;;;;16.52;75.86;101100.23;107558;1257;75968;-69
2023/08/14 02:24:59;;;;;;;7.10;4.50;;;;;;;16.52;75.76;101103.34;107555;1257;71743;-69
2023/08/14 02:27:29;;;;;;;5.70;4.30;;;;;;;16.51;75.74;101104.10;107461;1260;61081;-69
2023/08/14 02:29:58;;;;;;;6.50;4.50;;;;;;;16.52;75.62;101104.75;107528;1258;61252;-70
2023/08/14 02:32:26;;;;;;;5.30;4.40;;;;;;;16.53;75.68;101103.51;107451;1257;74042;-70
2023/08/14 02:34:55;;;;;;;7.80;4.50;;;;;;;16.53;75.63;101102.27;107533;1257;73077;-69
2023/08/14 02:37:23;;;;;;;6.70;4.70;;;;;;;16.50;75.55;101105.41;107655;1258;72700;-69
2023/08/14 02:39:51;;;;;;;5.60;4.80;;;;;;;16.50;75.61;101110.88;107584;1257;62585;-70
2023/08/14 02:42:19;;;;;;;6.20;4.90;;;;;;;16.49;75.59;101110.39;107568;1256;61192;-68
2023/08/14 02:44:48;;;;;;;5.80;4.70;;;;;;;16.48;75.63;101113.04;107482;1257;74616;-69
2023/08/14 02:47:16;;;;;;;6.10;4.70;;;;;;;16.47;75.61;101116.83;107561;1256;73460;-69
2023/08/14 02:49:44;;;;;;;6.50;4.70;;;;;;;16.44;75.54;101117.55;107558;1257;73235;-68
2023/08/14 02:52:12;;;;;;;6.00;4.80;;;;;;;16.40;75.55;101120.16;107596;1257;61783;-68
2023/08/14 02:54:39;;;;;;;5.70;4.40;;;;;;;16.39;75.51;101124.64;107469;1257;61170;-68
2023/08/14 02:57:07;;;;;;;6.70;4.30;;;;;;;16.35;75.48;101126.68;107569;1257;74690;-68
2023/08/14 02:59:35;;;;;;;4.90;4.10;;;;;;;16.28;75.47;101127.16;107597;1256;72988;-67
2023/08/14 03:02:03;;;;;;;6.40;4.60;;;;;;;16.17;75.55;101127.52;107523;1257;73840;-67
2023/08/14 03:04:31;;;;;;;4.90;4.20;;;;;;;16.09;75.69;101128.33;107548;1257;61785;-67
2023/08/14 03:06:59;;;;;;;5.70;4.20;;;;;;;15.96;76.29;101132.55;107632;1257;61147;-68
2023/08/14 03:09:27;;;;;;;4.80;4.00;;;;;;;15.90;76.68;101134.41;107477;1257;74767;-70
2023/08/14 03:11:54;;;;;;;5.30;4.20;;;;;;;15.87;76.74;101136.22;107474;1257;72893;-69
2023/08/14 03:14:22;;;;;;;5.40;3.80;;;;;;;15.86;76.88;101139.83;107363;1257;72785;-72
2023/08/14 03:16:49;;;;;;;6.40;4.10;;;;;;;15.84;77.11;101142.23;107429;1256;61106;-69
2023/08/14 03:19:17;;;;;;;5.40;3.90;;;;;;;15.81;77.40;101142.02;107635;1257;59254;-68
2023/08/14 03:21:45;;;;;;;5.20;4.20;;;;;;;15.85;77.53;101145.02;107641;1257;74798;-70
2023/08/14 03:24:12;;;;;;;5.50;4.20;;;;;;;15.94;77.45;101142.58;107496;1257;73455;-70
2023/08/14 03:26:40;;;;;;;4.90;3.90;;;;;;;15.96;77.54;101140.68;107436;1259;72886;-70
2023/08/14 03:29:12;;;;;;;5.10;4.20;;;;;;;15.97;77.75;101142.14;107689;1261;61222;-69
2023/08/14 03:31:39;;;;;;;5.70;4.30;;;;;;;16.00;77.87;101143.90;107507;1257;61317;-68
2023/08/14 03:34:09;;;;;;;6.20;4.30;;;;;;;16.04;77.98;101147.33;107276;1257;321060;-69
2023/08/14 03:36:37;;;;;;;5.40;4.60;;;;;;;16.07;78.08;101146.34;107709;1258;73107;-68
2023/08/14 03:39:05;;;;;;;7.40;4.90;;;;;;;16.11;78.19;101148.73;107521;1257;72814;-69
2023/08/14 03:41:33;;;;;;;5.80;5.10;;;;;;;16.15;78.27;101149.89;107505;1257;61987;-69
2023/08/14 03:44:02;;;;;;;9.30;5.00;;;;;;;16.24;78.38;101148.77;107303;1257;61295;-69
2023/08/14 03:46:29;;;;;;;7.00;5.80;;;;;;;16.32;78.48;101149.30;107586;1262;73763;-69
2023/08/14 03:48:57;;;;;;;7.10;5.20;;;;;;;16.40;78.51;101152.58;107536;1257;71441;-68
2023/08/14 03:51:25;;;;;;;8.40;5.60;;;;;;;16.49;78.53;101150.46;107405;1257;72818;-68
2023/08/14 03:53:52;;;;;;;6.70;5.20;;;;;;;16.57;78.52;101149.52;107441;1257;62072;-69
2023/08/14 03:56:20;;;;;;;6.90;5.30;;;;;;;16.68;78.61;101152.08;107511;1257;61107;-69
2023/08/14 03:58:48;;;;;;;7.80;5.00;;;;;;;16.81;78.62;101153.45;107544;1257;74691;-68
2023/08/14 04:01:16;;;;;;;8.30;5.40;;;;;;;16.96;78.61;101156.17;107589;1257;72819;-68
2023/08/14 04:03:45;;;;;;;7.50;5.60;;;;;;;17.10;78.54;101154.56;107585;1257;73699;-68
2023/08/14 04:06:13;;;;;;;7.10;5.40;;;;;;;17.24;78.42;101156.42;107435;1257;61943;-68
2023/08/14 04:08:41;;;;;;;6.20;4.90;;;;;;;17.38;78.24;101153.61;107546;1262;61061;-69
2023/08/14 04:11:09;;;;;;;7.40;5.00;;;;;;;17.51;78.05;101155.83;107475;1257;74952;-68
2023/08/14 04:13:37;;;;;;;6.30;5.30;;;;;;;17.66;78.00;101155.60;107577;1257;75023;-68
2023/08/14 04:16:05;;;;;;;6.70;5.60;;;;;;;17.81;77.73;101151.82;107501;1257;72778;-69
2023/08/14 04:18:33;;;;;;;6.70;5.50;;;;;;;17.95;77.46;101155.09;107541;1262;61116;-69
2023/08/14 04:21:01;;;;;;;7.40;5.40;;;;;;;18.10;77.31;101154.98;107589;1257;61106;-69
2023/08/14 04:23:30;;;;;;;7.00;5.30;;;;;;;18.24;77.15;101156.98;107498;1257;75596;-67
2023/08/14 04:25:58;;;;;;;7.30;5.30;;;;;;;18.38;76.86;101157.32;107653;1257;72905;-67
2023/08/14 04:28:25;;;;;;;8.20;5.90;;;;;;;18.53;76.74;101159.46;107505;1257;72978;-67
2023/08/14 04:30:55;;;;;;;6.10;5.10;;;;;;;18.68;76.45;101158.52;107544;1258;61199;-68
2023/08/14 04:33:22;;;;;;;7.00;5.60;;;;;;;18.84;76.16;101159.34;107506;1260;61166;-67
2023/08/14 04:35:50;;;;;;;6.90;5.40;;;;;;;19.00;75.69;101161.05;107494;1257;74851;-69
2023/08/14 04:38:19;;;;;;;7.90;5.40;;;;;;;19.16;75.37;101164.06;107438;1262;73107;-67
2023/08/14 04:40:49;;;;;;;7.60;5.50;;;;;;;19.30;74.92;101161.10;107499;1257;72504;-68
2023/08/14 04:43:18;;;;;;;8.20;5.40;;;;;;;19.43;74.67;101157.81;107429;1262;63122;-70
2023/08/14 04:45:46;;;;;;;7.50;5.60;;;;;;;19.57;74.20;101157.09;107559;1262;61320;-67
2023/08/14 04:48:14;;;;;;;8.30;5.60;;;;;;;19.68;73.71;101157.91;107592;1256;73491;-68
2023/08/14 04:50:42;;;;;;;6.70;5.40;;;;;;;19.82;73.30;101155.44;107542;1262;71603;-68
2023/08/14 04:53:10;;;;;;;7.40;6.10;;;;;;;19.99;72.87;101153.39;107737;1257;74690;-68
2023/08/14 04:55:39;;;;;;;8.30;5.80;;;;;;;20.15;72.19;101155.37;107648;1257;61914;-68
2023/08/14 04:58:07;;;;;;;6.70;5.70;;;;;;;20.31;71.22;101157.09;107419;1257;61210;-69
2023/08/14 05:00:35;;;;;;;8.00;6.00;;;;;;;20.43;70.59;101158.40;107418;1263;73452;-68
2023/08/14 05:03:05;;;;;;;6.60;5.90;;;;;;;20.56;70.01;101159.63;107532;1262;72924;-68
2023/08/14 05:05:33;;;;;;;9.40;6.50;;;;;;;20.67;69.36;101155.23;107619;1260;71761;-69
2023/08/14 05:08:01;;;;;;;10.60;6.20;;;;;;;20.98;68.05;101154.09;107217;1264;60518;-69
2023/08/14 05:10:28;;;;;;;7.50;5.80;;;;;;;20.99;67.17;101154.35;107167;1257;60991;-69
2023/08/14 05:12:56;;;;;;;8.50;6.20;;;;;;;21.07;66.74;101156.30;107410;1257;77953;-69
2023/08/14 05:15:24;;;;;;;8.20;5.80;;;;;;;21.15;65.81;101154.92;107428;1262;72805;-69
2023/08/14 05:17:51;;;;;;;10.00;6.50;;;;;;;21.27;65.29;101154.66;107299;1257;72797;-68
2023/08/14 05:20:19;;;;;;;9.80;6.80;;;;;;;21.42;64.63;101152.81;107428;1257;61164;-69
2023/08/14 05:22:48;;;;;;;8.00;6.50;;;;;;;22.27;61.90;101149.59;107497;1257;61126;-68
2023/08/14 05:25:16;;;;;;;9.50;6.40;;;;;;;22.64;60.09;101146.31;107649;1257;76779;-69
2023/08/14 05:27:44;;;;;;;11.90;6.40;;;;;;;22.88;58.70;101143.10;107573;1262;72721;-69
2023/08/14 05:30:13;;;;;;;9.00;5.40;;;;;;;23.06;57.72;101141.95;107524;1260;73068;-69
2023/08/14 05:32:41;;;;;;;9.50;5.80;;;;;;;23.20;56.98;101140.77;107532;1262;60105;-68
2023/08/14 05:35:09;;;;;;;7.50;6.00;;;;;;;22.66;57.78;101145.86;107656;1262;60558;-69
2023/08/14 05:37:36;;;;;;;8.00;6.10;;;;;;;22.42;58.34;101150.90;107674;1262;73562;-69
2023/08/14 05:40:05;;;;;;;8.90;5.90;;;;;;;22.45;58.22;101149.84;107681;1262;72469;-70
2023/08/14 05:42:32;;;;;;;8.30;5.80;;;;;;;22.53;58.10;101147.84;107607;1260;71483;-70
2023/08/14 05:45:00;;;;;;;6.30;5.40;;;;;;;22.60;57.81;101150.19;107470;1262;61113;-69
2023/08/14 05:47:27;;;;;;;7.80;5.50;;;;;;;22.65;57.28;101152.55;107523;1264;61088;-69
2023/08/14 05:49:55;;;;;;;7.90;5.60;;;;;;;22.73;56.67;101150.94;107574;1262;74792;-69
2023/08/14 05:52:23;;;;;;;7.70;6.00;;;;;;;22.77;56.48;101154.00;107603;1257;72917;-68
2023/08/14 05:54:51;;;;;;;7.50;5.60;;;;;;;22.86;56.53;101154.55;107577;1261;73489;-67
2023/08/14 05:57:18;;;;;;;10.10;5.80;;;;;;;22.96;56.40;101156.63;107515;1262;60638;-68
2023/08/14 05:59:46;;;;;;;8.10;5.70;;;;;;;23.06;56.13;101153.13;107535;1257;61241;-68
2023/08/14 06:02:14;;;;;;;6.70;5.40;;;;;;;23.17;56.05;101157.73;107539;1261;73441;-67
2023/08/14 06:04:41;;;;;;;7.70;5.70;;;;;;;23.27;55.75;101158.75;107539;1258;75187;-69
2023/08/14 06:07:09;;;;;;;5.80;5.10;;;;;;;23.37;55.42;101163.13;107564;1262;72672;-69
2023/08/14 06:09:36;;;;;;;7.20;5.70;;;;;;;23.50;55.34;101165.73;107611;1262;61067;-71
2023/08/14 06:12:05;;;;;;;8.50;5.80;;;;;;;23.62;55.11;101168.60;107580;1258;61238;-70
2023/08/14 06:14:32;;;;;;;8.10;5.20;;;;;;;23.73;54.66;101169.45;107546;1257;74620;-69
2023/08/14 06:17:00;;;;;;;7.20;5.20;;;;;;;23.81;54.37;101168.95;107591;1257;70805;-69
2023/08/14 06:19:28;;;;;;;7.00;4.80;;;;;;;23.86;53.85;101167.69;107607;1260;71434;-69
2023/08/14 06:21:55;;;;;;;6.50;5.20;;;;;;;23.91;53.50;101166.48;107434;1262;61088;-68
2023/08/14 06:24:23;;;;;;;6.40;5.00;;;;;;;24.02;53.50;101171.34;107457;1257;61234;-68
2023/08/14 06:26:51;;;;;;;8.60;4.70;;;;;;;24.18;53.45;101174.77;107569;1258;74705;-69
2023/08/14 06:29:19;;;;;;;7.90;5.10;;;;;;;24.32;53.35;101171.63;107578;1258;72881;-68
2023/08/14 06:31:47;;;;;;;5.70;4.50;;;;;;;24.48;52.95;101171.60;107568;1257;72543;-70
2023/08/14 06:34:14;;;;;;;7.60;4.80;;;;;;;24.63;52.50;101169.23;107530;1261;61103;-69
2023/08/14 06:36:43;;;;;;;7.00;5.20;;;;;;;24.77;52.01;101168.80;107438;1258;61276;-69
2023/08/14 06:39:10;;;;;;;7.10;5.10;;;;;;;24.88;51.50;101170.73;107597;1257;74795;-69
2023/08/14 06:41:41;;;;;;;7.40;4.70;;;;;;;24.99;51.33;101166.33;107489;1262;73304;-71
2023/08/14 06:44:09;;;;;;;7.10;4.50;;;;;;;25.12;51.19;101169.42;107374;1263;72696;-71
2023/08/14 06:46:37;;;;;;;6.10;4.70;;;;;;;25.21;50.98;101169.03;107498;1257;61192;-71
2023/08/14 06:49:05;;;;;;;6.60;4.80;;;;;;;25.32;50.86;101171.26;107787;1257;61153;-70
2023/08/14 06:51:32;;;;;;;6.90;4.40;;;;;;;25.42;50.42;101169.15;107763;1257;74522;-71
2023/08/14 06:54:00;;;;;;;7.40;4.80;;;;;;;25.50;49.90;101173.69;107471;1258;71173;-71
2023/08/14 06:56:28;;;;;;;6.80;5.20;;;;;;;25.55;49.84;101175.88;107441;1261;73699;-71
2023/08/14 06:58:56;;;;;;;7.20;4.80;;;;;;;25.62;49.89;101180.02;107438;1260;61258;-72
2023/08/14 07:01:23;;;;;;;6.70;4.80;;;;;;;25.72;49.46;101180.23;107516;1262;61162;-71
2023/08/14 07:03:51;;;;;;;6.40;4.60;;;;;;;25.84;49.43;101183.73;107697;1258;73370;-71
2023/08/14 07:06:19;;;;;;;6.90;4.50;;;;;;;25.97;49.14;101184.91;107537;1263;72987;-71
2023/08/14 07:08:46;;;;;;;5.30;4.20;;;;;;;26.11;48.95;101186.73;107507;1257;72761;-72
2023/08/14 07:11:14;;;;;;;7.50;4.70;;;;;;;26.25;48.76;101184.80;107522;1257;61141;-69
2023/08/14 07:13:41;;;;;;;6.60;4.40;;;;;;;26.37;47.97;101183.23;107677;1257;60654;-70
2023/08/14 07:16:09;;;;;;;7.40;4.30;;;;;;;26.49;46.74;101181.79;107566;1256;75262;-71
2023/08/14 07:18:37;;;;;;;6.20;4.30;;;;;;;26.58;46.41;101182.89;107563;1258;72760;-71
2023/08/14 07:21:05;;;;;;;5.60;4.10;;;;;;;26.68;46.25;101186.15;107529;1263;72651;-71
2023/08/14 07:23:32;;;;;;;5.90;3.80;;;;;;;26.79;45.75;101188.70;107607;1263;61250;-70
2023/08/14 07:26:03;;;;;;;6.70;3.60;;;;;;;26.90;44.59;101191.50;107503;1258;61247;-69
2023/08/14 07:28:31;;;;;;;5.10;3.50;;;;;;;26.98;43.69;101185.66;107572;1258;73640;-69
2023/08/14 07:30:59;;;;;;;5.30;3.50;;;;;;;27.07;43.26;101191.77;107464;1257;72718;-72
2023/08/14 07:33:26;;;;;;;5.10;3.70;;;;;;;27.18;43.14;101191.27;107590;1262;72830;-70
2023/08/14 07:35:55;;;;;;;6.70;3.50;;;;;;;27.28;43.19;101194.20;107581;1260;61237;-69
2023/08/14 07:38:22;;;;;;;6.10;3.70;;;;;;;27.39;42.45;101192.42;107626;1257;61131;-71
2023/08/14 07:40:50;;;;;;;4.60;3.40;;;;;;;27.49;41.68;101191.94;107612;1257;74673;-71
2023/08/14 07:43:17;;;;;;;6.30;3.60;;;;;;;27.60;41.38;101191.71;107509;1258;72712;-70
2023/08/14 07:45:45;;;;;;;5.80;3.60;;;;;;;27.70;41.01;101187.33;107676;1257;63702;-70
2023/08/14 07:48:13;;;;;;;5.30;3.20;;;;;;;27.81;40.76;101184.98;107421;1257;60943;-70
2023/08/14 07:50:41;;;;;;;5.70;3.20;;;;;;;27.93;40.44;101181.50;107640;1257;61211;-69
2023/08/14 07:53:10;;;;;;;5.70;3.30;;;;;;;28.06;40.29;101181.20;107622;1256;65869;-70
2023/08/14 07:55:38;;;;;;;8.50;3.50;;;;;;;28.17;40.11;101183.00;107528;1258;62532;-70
2023/08/14 07:58:05;;;;;;;4.10;3.00;;;;;;;28.24;39.85;101185.19;107491;1257;71453;-71
2023/08/14 08:00:33;;;;;;;4.80;3.00;;;;;;;28.31;39.41;101184.16;107463;1257;61177;-69
2023/08/14 08:03:00;;;;;;;5.80;2.90;;;;;;;28.40;39.12;101181.91;107377;1257;61257;-72
2023/08/14 08:05:28;;;;;;;4.70;3.20;;;;;;;28.50;39.20;101182.73;107423;1257;64586;-71
2023/08/14 08:07:56;;;;;;;4.10;2.90;;;;;;;28.61;38.84;101181.99;107508;1262;62505;-69
2023/08/14 08:10:23;;;;;;;6.70;3.40;;;;;;;28.70;38.80;101186.80;107673;1257;63856;-70
2023/08/14 08:12:51;;;;;;;6.60;3.40;;;;;;;28.77;38.98;101186.22;107525;1263;61096;-70
2023/08/14 08:15:19;;;;;;;5.90;3.40;;;;;;;28.86;39.35;101180.55;107520;1256;59144;-70
2023/08/14 08:17:47;;;;;;;4.60;2.80;;;;;;;28.91;38.60;101180.86;107578;1260;64722;-69
2023/08/14 08:20:15;;;;;;;5.00;2.70;;;;;;;28.96;38.23;101179.06;107544;1258;64058;-71
2023/08/14 08:22:42;;;;;;;4.70;2.80;;;;;;;28.98;37.12;101177.92;107651;1263;63946;-72
2023/08/14 08:25:10;;;;;;;4.80;2.80;;;;;;;29.01;37.44;101178.39;107516;1262;59414;-70
2023/08/14 08:27:38;;;;;;;6.70;2.60;;;;;;;29.05;37.57;101171.95;107610;1256;61262;-70
2023/08/14 08:30:06;;;;;;;6.40;2.90;;;;;;;29.13;37.91;101172.61;107499;1257;64436;-71
2023/08/14 08:32:34;;;;;;;4.20;3.00;;;;;;;29.28;38.19;101168.84;107610;1257;63953;-71
2023/08/14 08:35:02;;;;;;;5.20;2.90;;;;;;;29.43;37.72;101171.51;107488;1261;66046;-70
2023/08/14 08:37:30;;;;;;;3.60;2.50;;;;;;;29.54;37.33;101174.89;107535;1257;61236;-72
2023/08/14 08:39:57;;;;;;;4.20;2.60;;;;;;;29.61;37.41;101171.70;107587;1257;61343;-73
2023/08/14 08:42:25;;;;;;;5.50;2.40;;;;;;;29.72;37.55;101172.80;107659;1261;66337;-71
2023/08/14 08:44:53;;;;;;;5.00;2.60;;;;;;;29.84;36.60;101170.05;107500;1258;75073;-71
2023/08/14 08:47:23;;;;;;;4.20;2.50;;;;;;;29.93;36.04;101172.14;107574;1260;62745;-71
2023/08/14 08:49:51;;;;;;;4.30;2.80;;;;;;;30.00;35.60;101174.52;107562;1261;61161;-72
2023/08/14 08:52:18;;;;;;;6.40;2.70;;;;;;;30.04;35.43;101177.95;107426;1257;61321;-72
2023/08/14 08:54:46;;;;;;;4.20;2.50;;;;;;;30.00;34.74;101175.54;107500;1257;67908;-70
2023/08/14 08:57:14;;;;;;;6.20;2.70;;;;;;;29.90;34.98;101177.15;107533;1257;62809;-71
2023/08/14 08:59:42;;;;;;;4.40;2.70;;;;;;;29.89;35.38;101180.04;107291;1257;63745;-71
2023/08/14 09:02:10;;;;;;;3.90;2.60;;;;;;;29.88;35.25;101173.95;107505;1260;61355;-71
2023/08/14 09:04:38;;;;;;;3.60;2.30;;;;;;;29.83;35.40;101178.31;107606;1257;62916;-70
2023/08/14 09:07:05;;;;;;;4.10;2.60;;;;;;;29.87;34.91;101177.73;107549;1256;64538;-73
2023/08/14 09:09:33;;;;;;;4.60;2.50;;;;;;;29.93;35.06;101175.13;107291;1258;62636;-71
2023/08/14 09:12:01;;;;;;;3.90;2.30;;;;;;;30.01;35.17;101176.80;107536;1257;62453;-72
2023/08/14 09:14:28;;;;;;;5.10;2.60;;;;;;;30.08;35.29;101174.21;107631;1257;62048;-72
2023/08/14 09:16:57;;;;;;;3.40;2.30;;;;;;;30.22;34.82;101173.21;107471;1256;60815;-71
2023/08/14 09:19:27;;;;;;;4.10;2.20;;;;;;;30.35;34.81;101177.23;107622;1257;64430;-70
2023/08/14 09:21:55;;;;;;;3.80;2.40;;;;;;;30.49;34.86;101174.63;107515;1263;62549;-72
2023/08/14 09:24:22;;;;;;;4.60;2.40;;;;;;;30.65;35.12;101171.46;107463;1257;64148;-70
2023/08/14 09:26:50;;;;;;;3.50;2.40;;;;;;;30.78;34.62;101177.05;107503;1257;61272;-71
2023/08/14 09:29:17;;;;;;;8.10;2.70;;;;;;;30.87;34.14;101173.59;107485;1263;60119;-71
2023/08/14 09:31:46;;;;;;;5.40;2.30;;;;;;;30.89;33.52;101169.98;107476;1257;65800;-71
2023/08/14 09:34:20;;;;;;;3.80;2.50;;;;;;;30.89;33.88;101167.77;107630;1257;63805;-72
2023/08/14 09:36:48;;;;;;;4.70;2.50;;;;;;;30.91;33.97;101168.42;107639;1257;63756;-71
2023/08/14 09:39:17;;;;;;;3.70;2.20;;;;;;;30.96;33.62;101169.80;107524;1258;61230;-73
2023/08/14 09:41:47;;;;;;;6.30;2.30;;;;;;;30.87;33.53;101172.88;107561;1256;61224;-71
2023/08/14 09:44:18;;;;;;;4.30;2.20;;;;;;;30.78;33.08;101168.45;107554;1256;64454;-71
2023/08/14 09:46:48;;;;;;;3.40;2.20;;;;;;;30.76;33.42;101172.70;107652;1257;62500;-75
2023/08/14 09:49:17;;;;;;;4.50;2.30;;;;;;;30.79;33.95;101169.27;107549;1260;63754;-73
2023/08/14 09:51:58;;;;;;;3.50;2.00;;;;;;;30.86;34.18;101167.13;107567;1257;61149;-73
2023/08/14 09:54:30;;;;;;;;;;;;;;;30.98;34.44;101167.85;107720;1256;61246;-73
2023/08/14 09:57:05;;;;;;;3.80;2.20;;;;;;;31.10;34.06;101164.72;107729;1262;65931;-74
2023/08/14 09:59:35;;;;;;;3.60;2.20;;;;;;;31.17;32.92;101165.70;107648;1257;62720;-74
2023/08/14 10:02:05;;;;;;;4.20;1.80;;;;;;;31.15;33.28;101160.48;107568;1257;62681;-72
2023/08/14 10:04:34;;;;;;;4.30;2.20;;;;;;;31.16;32.71;101160.42;107411;1256;61241;-71
2023/08/14 10:07:49;;;;;;;4.20;2.30;;;;;;;31.08;32.73;101158.95;107492;1257;61305;-69
2023/08/14 10:10:16;;;;;;;3.70;2.30;;;;;;;31.01;33.15;101154.09;107566;1257;65986;-71
2023/08/14 10:12:54;;;;;;;3.80;2.10;;;;;;;31.09;32.79;101155.24;107467;1257;62585;-69
2023/08/14 10:15:27;;;;;;;4.10;2.00;;;;;;;31.14;32.33;101155.20;107468;1257;62453;-72
2023/08/14 10:17:57;;;;;;;4.10;2.20;;;;;;;31.22;32.11;101150.05;107220;1257;61103;-71
2023/08/14 10:20:25;;;;;;;3.40;2.00;;;;;;;31.20;32.39;101147.43;107597;1257;58991;-74
2023/08/14 10:22:52;;;;;;;4.00;2.00;;;;;;;31.30;32.40;101148.08;107456;1257;65781;-72
2023/08/14 10:25:22;;;;;;;3.20;2.00;;;;;;;31.43;32.56;101149.42;107389;1257;62679;-71
2023/08/14 10:27:51;;;;;;;3.30;1.90;;;;;;;31.57;32.69;101151.39;107446;1257;62591;-74
2023/08/14 10:30:25;;;;;;;4.40;2.20;;;;;;;31.71;32.56;101153.84;107338;1260;61285;-74
2023/08/14 10:32:53;;;;;;;3.70;2.10;;;;;;;31.72;32.25;101150.06;107497;1257;60322;-71
2023/08/14 10:35:21;;;;;;;3.90;2.30;;;;;;;31.80;32.54;101146.86;107473;1257;65973;-73
2023/08/14 10:37:49;;;;;;;3.80;2.00;;;;;;;31.97;32.42;101145.38;107514;1257;64015;-74
2023/08/14 10:40:31;;;;;;;4.10;2.10;;;;;;;32.07;31.88;101145.09;107413;1262;63781;-72
2023/08/14 10:42:58;;;;;;;3.80;2.20;;;;;;;32.04;31.98;101145.71;107382;1257;61196;-73
2023/08/14 10:45:27;;;;;;;3.30;1.90;;;;;;;32.10;31.95;101144.39;107618;1258;61410;-73
2023/08/14 10:47:59;;;;;;;4.20;2.00;;;;;;;32.16;31.57;101144.25;107461;1257;64507;-72
2023/08/14 10:50:30;;;;;;;3.80;1.90;;;;;;;32.22;31.55;101144.02;107595;1257;62659;-71
2023/08/14 10:52:58;;;;;;;3.50;2.10;;;;;;;32.26;31.16;101141.59;107412;1260;63886;-72
2023/08/14 10:55:40;;;;;;;4.20;2.10;;;;;;;32.32;30.81;101144.44;107387;1260;61235;-73
2023/08/14 10:58:35;;;;;;;4.10;2.10;;;;;;;32.26;31.24;101141.59;107293;1257;59994;-77
2023/08/14 11:01:08;;;;;;;2.50;1.80;;;;;;;32.20;31.30;101142.36;107365;1258;64570;-71
2023/08/14 11:04:03;;;;;;;3.10;2.00;;;;;;;32.24;31.58;101142.22;107379;1257;63996;-71
2023/08/14 11:06:57;;;;;;;4.50;2.20;;;;;;;32.31;31.15;101143.89;107604;1261;63862;-72
2023/08/14 11:09:32;;;;;;;4.00;2.10;;;;;;;32.33;31.10;101138.92;107403;1257;61138;-72
2023/08/14 11:12:07;;;;;;;4.00;2.10;;;;;;;32.39;31.19;101135.39;107450;1257;61070;-72
2023/08/14 11:14:37;;;;;;;4.30;2.10;;;;;;;32.48;31.39;101133.91;107546;1257;65822;-73
2023/08/14 11:17:05;;;;;;;5.70;1.90;;;;;;;32.56;31.13;101135.90;107430;1257;62758;-72
2023/08/14 11:19:34;;;;;;;4.20;2.50;;;;;;;32.58;30.62;101131.80;107573;1258;64105;-71
2023/08/14 11:22:01;;;;;;;4.30;2.10;;;;;;;32.60;30.61;101131.08;107495;1257;61098;-73
2023/08/14 11:24:29;;;;;;;3.60;2.20;;;;;;;32.61;30.83;101124.36;107666;1257;60599;-75
2023/08/14 11:26:58;;;;;;;5.60;2.50;;;;;;;32.65;31.10;101122.39;107607;1257;65779;-73